sensor_id;sensor_type;location;lat;lon;timestamp;P1;durP1;ratioP1;P2;durP2;ratioP2
18893;SDS011;9579;49.488;8.226;2023-06-24T01:58:55;5.65;;;5.22;;
18893;SDS011;9579;49.488;8.226;2023-06-24T02:01:45;5.50;;;5.10;;
18893;SDS011;9579;49.488;8.226;2023-06-24T02:04:32;5.60;;;5.20;;
18893;SDS011;9579;49.488;8.226;2023-06-24T02:07:21;5.43;;;4.93;;
18893;SDS011;9579;49.488;8.226;2023-06-24T02:10:10;5.63;;;5.22;;
18893;SDS011;9579;49.488;8.226;2023-06-24T02:12:58;5.25;;;4.85;;
18893;SDS011;9579;49.488;8.226;2023-06-24T02:15:47;6.32;;;5.43;;
18893;SDS011;9579;49.488;8.226;2023-06-24T02:18:37;5.63;;;5.13;;
18893;SDS011;9579;49.488;8.226;2023-06-24T02:21:27;5.88;;;5.38;;
18893;SDS011;9579;49.488;8.226;2023-06-24T02:24:16;5.75;;;5.32;;
18893;SDS011;9579;49.488;8.226;2023-06-24T02:27:03;5.28;;;4.88;;
18893;SDS011;9579;49.488;8.226;2023-06-24T02:29:52;5.35;;;4.95;;
18893;SDS011;9579;49.488;8.226;2023-06-24T02:32:41;5.60;;;5.20;;
18893;SDS011;9579;49.488;8.226;2023-06-24T02:35:28;6.03;;;5.63;;
18893;SDS011;9579;49.488;8.226;2023-06-24T02:38:16;6.07;;;5.68;;
18893;SDS011;9579;49.488;8.226;2023-06-24T02:41:03;5.60;;;5.20;;
18893;SDS011;9579;49.488;8.226;2023-06-24T02:43:50;6.22;;;5.65;;
18893;SDS011;9579;49.488;8.226;2023-06-24T02:46:37;6.30;;;5.80;;
18893;SDS011;9579;49.488;8.226;2023-06-24T02:49:27;6.20;;;5.70;;
18893;SDS011;9579;49.488;8.226;2023-06-24T02:52:15;6.25;;;5.75;;
18893;SDS011;9579;49.488;8.226;2023-06-24T02:55:02;6.47;;;5.97;;
18893;SDS011;9579;49.488;8.226;2023-06-24T02:57:50;7.00;;;6.40;;
18893;SDS011;9579;49.488;8.226;2023-06-24T03:00:38;6.20;;;5.75;;
18893;SDS011;9579;49.488;8.226;2023-06-24T03:03:26;6.38;;;5.88;;
18893;SDS011;9579;49.488;8.226;2023-06-24T03:06:15;6.15;;;5.72;;
18893;SDS011;9579;49.488;8.226;2023-06-24T03:09:02;6.32;;;5.80;;
18893;SDS011;9579;49.488;8.226;2023-06-24T03:11:50;6.13;;;5.63;;
18893;SDS011;9579;49.488;8.226;2023-06-24T03:14:38;6.55;;;6.05;;
18893;SDS011;9579;49.488;8.226;2023-06-24T03:17:25;6.60;;;6.05;;
18893;SDS011;9579;49.488;8.226;2023-06-24T03:20:12;6.50;;;6.00;;
18893;SDS011;9579;49.488;8.226;2023-06-24T03:23:01;6.30;;;5.80;;
18893;SDS011;9579;49.488;8.226;2023-06-24T03:25:48;5.97;;;5.57;;
18893;SDS011;9579;49.488;8.226;2023-06-24T03:28:35;5.95;;;5.55;;
18893;SDS011;9579;49.488;8.226;2023-06-24T03:31:23;6.18;;;5.68;;
18893;SDS011;9579;49.488;8.226;2023-06-24T03:34:10;6.18;;;5.60;;
18893;SDS011;9579;49.488;8.226;2023-06-24T03:36:58;6.10;;;5.50;;
18893;SDS011;9579;49.488;8.226;2023-06-24T03:39:46;6.22;;;5.63;;
18893;SDS011;9579;49.488;8.226;2023-06-24T03:42:33;6.28;;;5.78;;
18893;SDS011;9579;49.488;8.226;2023-06-24T03:45:20;7.13;;;6.53;;
18893;SDS011;9579;49.488;8.226;2023-06-24T03:48:07;6.43;;;6.00;;
18893;SDS011;9579;49.488;8.226;2023-06-24T03:50:54;6.78;;;6.28;;
18893;SDS011;9579;49.488;8.226;2023-06-24T03:53:41;6.03;;;5.63;;
18893;SDS011;9579;49.488;8.226;2023-06-24T03:56:30;7.13;;;6.55;;
18893;SDS011;9579;49.488;8.226;2023-06-24T03:59:17;7.03;;;6.53;;
18893;SDS011;9579;49.488;8.226;2023-06-24T04:02:04;7.13;;;6.63;;
18893;SDS011;9579;49.488;8.226;2023-06-24T04:04:53;7.13;;;6.63;;
18893;SDS011;9579;49.488;8.226;2023-06-24T04:07:41;6.78;;;6.15;;
18893;SDS011;9579;49.488;8.226;2023-06-24T04:10:32;6.33;;;5.73;;
18893;SDS011;9579;49.488;8.226;2023-06-24T04:13:20;6.80;;;6.30;;
18893;SDS011;9579;49.488;8.226;2023-06-24T04:16:07;6.50;;;6.00;;
18893;SDS011;9579;49.488;8.226;2023-06-24T04:18:54;6.72;;;6.15;;
18893;SDS011;9579;49.488;8.226;2023-06-24T04:21:41;6.70;;;6.13;;
18893;SDS011;9579;49.488;8.226;2023-06-24T04:24:28;6.93;;;6.32;;
18893;SDS011;9579;49.488;8.226;2023-06-24T04:27:16;6.78;;;6.28;;
18893;SDS011;9579;49.488;8.226;2023-06-24T04:30:05;6.78;;;6.30;;
18893;SDS011;9579;49.488;8.226;2023-06-24T04:32:52;6.60;;;5.90;;
18893;SDS011;9579;49.488;8.226;2023-06-24T04:35:39;6.80;;;6.30;;
18893;SDS011;9579;49.488;8.226;2023-06-24T04:38:26;6.80;;;6.20;;
18893;SDS011;9579;49.488;8.226;2023-06-24T04:41:13;6.75;;;6.15;;
18893;SDS011;9579;49.488;8.226;2023-06-24T04:44:00;7.40;;;6.80;;
18893;SDS011;9579;49.488;8.226;2023-06-24T04:46:49;6.88;;;6.28;;
18893;SDS011;9579;49.488;8.226;2023-06-24T04:49:37;6.47;;;5.97;;
18893;SDS011;9579;49.488;8.226;2023-06-24T04:52:24;6.63;;;6.13;;
18893;SDS011;9579;49.488;8.226;2023-06-24T04:55:11;6.53;;;6.03;;
18893;SDS011;9579;49.488;8.226;2023-06-24T04:57:58;7.07;;;6.47;;
18893;SDS011;9579;49.488;8.226;2023-06-24T05:00:45;6.70;;;6.10;;
18893;SDS011;9579;49.488;8.226;2023-06-24T05:03:33;7.13;;;6.57;;
18893;SDS011;9579;49.488;8.226;2023-06-24T05:06:20;6.75;;;6.25;;
18893;SDS011;9579;49.488;8.226;2023-06-24T05:09:07;6.57;;;6.07;;
18893;SDS011;9579;49.488;8.226;2023-06-24T05:11:58;5.88;;;5.38;;
18893;SDS011;9579;49.488;8.226;2023-06-24T05:14:48;5.97;;;5.47;;
18893;SDS011;9579;49.488;8.226;2023-06-24T05:17:37;6.80;;;6.10;;
18893;SDS011;9579;49.488;8.226;2023-06-24T05:20:25;6.00;;;5.60;;
18893;SDS011;9579;49.488;8.226;2023-06-24T05:23:13;6.38;;;5.88;;
18893;SDS011;9579;49.488;8.226;2023-06-24T05:26:00;7.13;;;6.47;;
18893;SDS011;9579;49.488;8.226;2023-06-24T05:28:47;7.07;;;6.47;;
18893;SDS011;9579;49.488;8.226;2023-06-24T05:31:33;6.05;;;5.63;;
18893;SDS011;9579;49.488;8.226;2023-06-24T05:34:20;6.82;;;6.32;;
18893;SDS011;9579;49.488;8.226;2023-06-24T05:37:09;6.60;;;6.10;;
18893;SDS011;9579;49.488;8.226;2023-06-24T05:39:56;6.55;;;6.05;;
18893;SDS011;9579;49.488;8.226;2023-06-24T05:42:46;6.53;;;6.03;;
18893;SDS011;9579;49.488;8.226;2023-06-24T05:45:33;6.63;;;6.10;;
18893;SDS011;9579;49.488;8.226;2023-06-24T05:48:20;6.63;;;6.13;;
18893;SDS011;9579;49.488;8.226;2023-06-24T05:51:07;6.50;;;5.95;;
18893;SDS011;9579;49.488;8.226;2023-06-24T05:53:55;7.00;;;6.40;;
18893;SDS011;9579;49.488;8.226;2023-06-24T05:56:43;6.38;;;5.88;;
18893;SDS011;9579;49.488;8.226;2023-06-24T05:59:30;6.57;;;6.07;;
18893;SDS011;9579;49.488;8.226;2023-06-24T06:02:16;5.65;;;5.25;;
18893;SDS011;9579;49.488;8.226;2023-06-24T06:05:04;6.57;;;6.00;;
18893;SDS011;9579;49.488;8.226;2023-06-24T06:07:51;7.47;;;6.15;;
18893;SDS011;9579;49.488;8.226;2023-06-24T06:10:40;6.10;;;5.70;;
18893;SDS011;9579;49.488;8.226;2023-06-24T06:13:27;6.60;;;6.10;;
18893;SDS011;9579;49.488;8.226;2023-06-24T06:16:14;5.95;;;5.45;;
18893;SDS011;9579;49.488;8.226;2023-06-24T06:19:01;5.72;;;5.32;;
18893;SDS011;9579;49.488;8.226;2023-06-24T06:21:48;6.10;;;5.60;;
18893;SDS011;9579;49.488;8.226;2023-06-24T06:24:35;6.15;;;5.55;;
18893;SDS011;9579;49.488;8.226;2023-06-24T06:27:24;6.10;;;5.60;;
18893;SDS011;9579;49.488;8.226;2023-06-24T06:30:12;6.03;;;5.53;;
18893;SDS011;9579;49.488;8.226;2023-06-24T06:33:00;5.97;;;5.45;;
18893;SDS011;9579;49.488;8.226;2023-06-24T06:35:47;6.55;;;5.97;;
18893;SDS011;9579;49.488;8.226;2023-06-24T06:38:34;6.03;;;5.53;;
18893;SDS011;9579;49.488;8.226;2023-06-24T06:41:21;5.40;;;5.00;;
18893;SDS011;9579;49.488;8.226;2023-06-24T06:44:11;6.00;;;5.57;;
18893;SDS011;9579;49.488;8.226;2023-06-24T06:46:58;6.97;;;6.28;;
18893;SDS011;9579;49.488;8.226;2023-06-24T06:49:45;6.90;;;6.30;;
18893;SDS011;9579;49.488;8.226;2023-06-24T06:52:32;7.10;;;6.50;;
18893;SDS011;9579;49.488;8.226;2023-06-24T06:55:20;6.35;;;5.85;;
18893;SDS011;9579;49.488;8.226;2023-06-24T06:58:07;6.70;;;6.10;;
18893;SDS011;9579;49.488;8.226;2023-06-24T07:00:55;6.78;;;6.28;;
18893;SDS011;9579;49.488;8.226;2023-06-24T07:03:46;7.57;;;6.80;;
18893;SDS011;9579;49.488;8.226;2023-06-24T07:06:35;6.60;;;5.90;;
18893;SDS011;9579;49.488;8.226;2023-06-24T07:09:22;5.97;;;5.47;;
18893;SDS011;9579;49.488;8.226;2023-06-24T07:12:10;6.47;;;5.97;;
18893;SDS011;9579;49.488;8.226;2023-06-24T07:14:58;5.28;;;4.88;;
18893;SDS011;9579;49.488;8.226;2023-06-24T07:17:46;7.28;;;6.55;;
18893;SDS011;9579;49.488;8.226;2023-06-24T07:20:33;6.97;;;6.30;;
18893;SDS011;9579;49.488;8.226;2023-06-24T07:23:21;7.15;;;6.50;;
18893;SDS011;9579;49.488;8.226;2023-06-24T07:26:10;6.55;;;5.95;;
18893;SDS011;9579;49.488;8.226;2023-06-24T07:28:57;7.38;;;6.70;;
18893;SDS011;9579;49.488;8.226;2023-06-24T07:31:44;5.95;;;5.45;;
18893;SDS011;9579;49.488;8.226;2023-06-24T07:34:33;7.32;;;6.30;;
18893;SDS011;9579;49.488;8.226;2023-06-24T07:37:19;7.22;;;6.60;;
18893;SDS011;9579;49.488;8.226;2023-06-24T07:40:07;7.60;;;6.35;;
18893;SDS011;9579;49.488;8.226;2023-06-24T07:42:55;6.65;;;6.15;;
18893;SDS011;9579;49.488;8.226;2023-06-24T07:45:42;6.57;;;6.05;;
18893;SDS011;9579;49.488;8.226;2023-06-24T07:48:29;5.82;;;5.30;;
18893;SDS011;9579;49.488;8.226;2023-06-24T07:51:18;6.25;;;5.75;;
18893;SDS011;9579;49.488;8.226;2023-06-24T07:54:05;6.47;;;5.97;;
18893;SDS011;9579;49.488;8.226;2023-06-24T07:56:52;6.00;;;5.50;;
18893;SDS011;9579;49.488;8.226;2023-06-24T07:59:39;5.93;;;5.53;;
18893;SDS011;9579;49.488;8.226;2023-06-24T08:02:26;7.00;;;6.30;;
18893;SDS011;9579;49.488;8.226;2023-06-24T08:05:13;7.00;;;6.30;;
18893;SDS011;9579;49.488;8.226;2023-06-24T08:08:05;7.95;;;6.47;;
18893;SDS011;9579;49.488;8.226;2023-06-24T08:10:52;7.95;;;7.30;;
18893;SDS011;9579;49.488;8.226;2023-06-24T08:13:39;6.40;;;5.90;;
18893;SDS011;9579;49.488;8.226;2023-06-24T08:16:26;6.22;;;5.63;;
18893;SDS011;9579;49.488;8.226;2023-06-24T08:19:13;6.05;;;5.55;;
18893;SDS011;9579;49.488;8.226;2023-06-24T08:22:00;5.57;;;5.18;;
18893;SDS011;9579;49.488;8.226;2023-06-24T08:24:49;6.82;;;5.88;;
18893;SDS011;9579;49.488;8.226;2023-06-24T08:27:36;6.15;;;5.65;;
18893;SDS011;9579;49.488;8.226;2023-06-24T08:30:24;6.93;;;6.30;;
18893;SDS011;9579;49.488;8.226;2023-06-24T08:33:11;6.55;;;6.03;;
18893;SDS011;9579;49.488;8.226;2023-06-24T08:35:58;5.63;;;5.18;;
18893;SDS011;9579;49.488;8.226;2023-06-24T08:38:46;6.38;;;5.80;;
18893;SDS011;9579;49.488;8.226;2023-06-24T08:41:34;5.70;;;4.90;;
18893;SDS011;9579;49.488;8.226;2023-06-24T08:44:24;5.50;;;5.00;;
18893;SDS011;9579;49.488;8.226;2023-06-24T08:47:11;5.00;;;4.60;;
18893;SDS011;9579;49.488;8.226;2023-06-24T08:50:01;5.60;;;5.10;;
18893;SDS011;9579;49.488;8.226;2023-06-24T08:52:51;6.63;;;5.72;;
18893;SDS011;9579;49.488;8.226;2023-06-24T08:55:39;6.18;;;5.60;;
18893;SDS011;9579;49.488;8.226;2023-06-24T08:58:30;6.30;;;5.50;;
18893;SDS011;9579;49.488;8.226;2023-06-24T09:01:17;4.90;;;4.57;;
18893;SDS011;9579;49.488;8.226;2023-06-24T09:04:04;6.35;;;5.05;;
18893;SDS011;9579;49.488;8.226;2023-06-24T09:06:51;5.55;;;5.15;;
18893;SDS011;9579;49.488;8.226;2023-06-24T09:09:41;5.07;;;4.57;;
18893;SDS011;9579;49.488;8.226;2023-06-24T09:12:31;5.03;;;4.65;;
18893;SDS011;9579;49.488;8.226;2023-06-24T09:15:20;4.80;;;4.47;;
18893;SDS011;9579;49.488;8.226;2023-06-24T09:18:07;5.10;;;4.60;;
18893;SDS011;9579;49.488;8.226;2023-06-24T09:20:56;4.70;;;4.40;;
18893;SDS011;9579;49.488;8.226;2023-06-24T09:23:43;6.50;;;5.05;;
18893;SDS011;9579;49.488;8.226;2023-06-24T09:26:30;5.18;;;4.78;;
18893;SDS011;9579;49.488;8.226;2023-06-24T09:29:17;5.25;;;4.75;;
18893;SDS011;9579;49.488;8.226;2023-06-24T09:32:05;4.85;;;4.45;;
18893;SDS011;9579;49.488;8.226;2023-06-24T09:34:54;5.35;;;4.80;;
18893;SDS011;9579;49.488;8.226;2023-06-24T09:37:41;4.97;;;4.57;;
18893;SDS011;9579;49.488;8.226;2023-06-24T09:40:28;5.43;;;4.93;;
18893;SDS011;9579;49.488;8.226;2023-06-24T09:43:16;4.72;;;4.18;;
18893;SDS011;9579;49.488;8.226;2023-06-24T09:46:06;5.22;;;4.82;;
18893;SDS011;9579;49.488;8.226;2023-06-24T09:48:55;4.90;;;4.55;;
18893;SDS011;9579;49.488;8.226;2023-06-24T09:51:43;5.78;;;4.65;;
18893;SDS011;9579;49.488;8.226;2023-06-24T09:54:31;6.00;;;5.50;;
18893;SDS011;9579;49.488;8.226;2023-06-24T09:57:18;5.70;;;5.13;;
18893;SDS011;9579;49.488;8.226;2023-06-24T10:00:09;5.20;;;4.80;;
18893;SDS011;9579;49.488;8.226;2023-06-24T10:02:57;5.38;;;4.97;;
18893;SDS011;9579;49.488;8.226;2023-06-24T10:05:46;5.55;;;5.15;;
18893;SDS011;9579;49.488;8.226;2023-06-24T10:08:33;5.18;;;4.88;;
18893;SDS011;9579;49.488;8.226;2023-06-24T10:11:20;4.55;;;4.15;;
18893;SDS011;9579;49.488;8.226;2023-06-24T10:14:08;4.70;;;4.30;;
18893;SDS011;9579;49.488;8.226;2023-06-24T10:17:01;4.75;;;4.35;;
18893;SDS011;9579;49.488;8.226;2023-06-24T10:19:51;4.90;;;4.50;;
18893;SDS011;9579;49.488;8.226;2023-06-24T10:22:40;5.55;;;4.90;;
18893;SDS011;9579;49.488;8.226;2023-06-24T10:25:35;4.80;;;4.40;;
18893;SDS011;9579;49.488;8.226;2023-06-24T10:28:22;4.68;;;4.28;;
18893;SDS011;9579;49.488;8.226;2023-06-24T10:31:09;4.93;;;4.43;;
18893;SDS011;9579;49.488;8.226;2023-06-24T10:33:58;4.53;;;4.22;;
18893;SDS011;9579;49.488;8.226;2023-06-24T10:36:47;4.88;;;4.40;;
18893;SDS011;9579;49.488;8.226;2023-06-24T10:39:45;5.00;;;4.70;;
18893;SDS011;9579;49.488;8.226;2023-06-24T10:42:37;4.97;;;4.60;;
18893;SDS011;9579;49.488;8.226;2023-06-24T10:45:26;5.00;;;4.63;;
18893;SDS011;9579;49.488;8.226;2023-06-24T10:48:13;5.15;;;4.75;;
18893;SDS011;9579;49.488;8.226;2023-06-24T10:51:00;5.25;;;4.85;;
18893;SDS011;9579;49.488;8.226;2023-06-24T10:53:47;5.20;;;4.70;;
18893;SDS011;9579;49.488;8.226;2023-06-24T10:56:36;5.30;;;4.80;;
18893;SDS011;9579;49.488;8.226;2023-06-24T10:59:24;5.35;;;4.85;;
18893;SDS011;9579;49.488;8.226;2023-06-24T11:02:13;4.90;;;4.50;;
18893;SDS011;9579;49.488;8.226;2023-06-24T11:05:01;4.97;;;4.57;;
18893;SDS011;9579;49.488;8.226;2023-06-24T11:07:49;5.10;;;4.68;;
18893;SDS011;9579;49.488;8.226;2023-06-24T11:10:42;4.43;;;4.13;;
18893;SDS011;9579;49.488;8.226;2023-06-24T11:13:34;4.80;;;4.43;;
18893;SDS011;9579;49.488;8.226;2023-06-24T11:16:21;4.40;;;4.10;;
18893;SDS011;9579;49.488;8.226;2023-06-24T11:19:08;5.03;;;4.53;;
18893;SDS011;9579;49.488;8.226;2023-06-24T11:21:58;4.45;;;4.05;;
18893;SDS011;9579;49.488;8.226;2023-06-24T11:24:45;4.38;;;4.07;;
18893;SDS011;9579;49.488;8.226;2023-06-24T11:27:32;5.10;;;4.70;;
18893;SDS011;9579;49.488;8.226;2023-06-24T11:30:21;4.20;;;3.80;;
18893;SDS011;9579;49.488;8.226;2023-06-24T11:33:08;4.40;;;4.00;;
18893;SDS011;9579;49.488;8.226;2023-06-24T11:35:55;4.80;;;4.30;;
18893;SDS011;9579;49.488;8.226;2023-06-24T11:38:42;4.72;;;4.32;;
18893;SDS011;9579;49.488;8.226;2023-06-24T11:41:29;4.30;;;4.00;;
18893;SDS011;9579;49.488;8.226;2023-06-24T11:44:19;4.50;;;4.10;;
18893;SDS011;9579;49.488;8.226;2023-06-24T11:47:09;4.35;;;4.05;;
18893;SDS011;9579;49.488;8.226;2023-06-24T11:49:57;4.20;;;3.90;;
18893;SDS011;9579;49.488;8.226;2023-06-24T11:52:47;4.85;;;4.45;;
18893;SDS011;9579;49.488;8.226;2023-06-24T11:55:35;4.55;;;4.22;;
18893;SDS011;9579;49.488;8.226;2023-06-24T11:58:22;4.45;;;4.15;;
18893;SDS011;9579;49.488;8.226;2023-06-24T12:01:09;4.20;;;3.90;;
18893;SDS011;9579;49.488;8.226;2023-06-24T12:03:59;5.10;;;4.60;;
18893;SDS011;9579;49.488;8.226;2023-06-24T12:06:46;4.88;;;4.50;;
18893;SDS011;9579;49.488;8.226;2023-06-24T12:09:33;4.82;;;4.43;;
18893;SDS011;9579;49.488;8.226;2023-06-24T12:12:20;4.35;;;3.95;;
18893;SDS011;9579;49.488;8.226;2023-06-24T12:15:07;4.43;;;4.13;;
18893;SDS011;9579;49.488;8.226;2023-06-24T12:17:55;4.93;;;4.40;;
18893;SDS011;9579;49.488;8.226;2023-06-24T12:20:43;4.60;;;4.20;;
18893;SDS011;9579;49.488;8.226;2023-06-24T12:23:30;4.75;;;4.20;;
18893;SDS011;9579;49.488;8.226;2023-06-24T12:26:17;4.72;;;4.22;;
18893;SDS011;9579;49.488;8.226;2023-06-24T12:29:05;4.97;;;4.53;;
18893;SDS011;9579;49.488;8.226;2023-06-24T12:31:52;4.72;;;4.32;;
18893;SDS011;9579;49.488;8.226;2023-06-24T12:34:39;4.78;;;4.32;;
18893;SDS011;9579;49.488;8.226;2023-06-24T12:37:29;4.32;;;3.90;;
18893;SDS011;9579;49.488;8.226;2023-06-24T12:40:17;4.15;;;3.83;;
18893;SDS011;9579;49.488;8.226;2023-06-24T12:43:04;4.63;;;4.32;;
18893;SDS011;9579;49.488;8.226;2023-06-24T12:45:51;4.60;;;4.22;;
18893;SDS011;9579;49.488;8.226;2023-06-24T12:48:40;4.75;;;4.35;;
18893;SDS011;9579;49.488;8.226;2023-06-24T12:51:29;4.57;;;4.28;;
18893;SDS011;9579;49.488;8.226;2023-06-24T12:54:17;4.90;;;4.50;;
18893;SDS011;9579;49.488;8.226;2023-06-24T12:57:04;4.90;;;4.50;;
18893;SDS011;9579;49.488;8.226;2023-06-24T12:59:52;4.68;;;4.28;;
18893;SDS011;9579;49.488;8.226;2023-06-24T13:02:39;4.30;;;4.00;;
18893;SDS011;9579;49.488;8.226;2023-06-24T13:05:26;5.28;;;4.88;;
18893;SDS011;9579;49.488;8.226;2023-06-24T13:08:13;4.70;;;4.40;;
18893;SDS011;9579;49.488;8.226;2023-06-24T13:11:01;4.88;;;4.57;;
18893;SDS011;9579;49.488;8.226;2023-06-24T13:13:48;4.40;;;4.10;;
18893;SDS011;9579;49.488;8.226;2023-06-24T13:16:35;4.57;;;4.10;;
18893;SDS011;9579;49.488;8.226;2023-06-24T13:19:23;4.95;;;4.35;;
18893;SDS011;9579;49.488;8.226;2023-06-24T13:22:10;4.60;;;4.28;;
18893;SDS011;9579;49.488;8.226;2023-06-24T13:24:57;5.03;;;4.60;;
18893;SDS011;9579;49.488;8.226;2023-06-24T13:27:45;4.28;;;3.90;;
18893;SDS011;9579;49.488;8.226;2023-06-24T13:30:32;5.13;;;4.63;;
18893;SDS011;9579;49.488;8.226;2023-06-24T13:33:19;4.78;;;4.38;;
18893;SDS011;9579;49.488;8.226;2023-06-24T13:36:07;4.22;;;3.92;;
18893;SDS011;9579;49.488;8.226;2023-06-24T13:38:58;4.72;;;4.32;;
18893;SDS011;9579;49.488;8.226;2023-06-24T13:41:45;4.32;;;4.03;;
18893;SDS011;9579;49.488;8.226;2023-06-24T13:44:34;4.60;;;4.20;;
18893;SDS011;9579;49.488;8.226;2023-06-24T13:47:21;5.32;;;4.93;;
18893;SDS011;9579;49.488;8.226;2023-06-24T13:50:09;4.80;;;4.50;;
18893;SDS011;9579;49.488;8.226;2023-06-24T13:52:56;4.93;;;4.53;;
18893;SDS011;9579;49.488;8.226;2023-06-24T13:55:43;4.63;;;4.30;;
18893;SDS011;9579;49.488;8.226;2023-06-24T13:58:30;5.40;;;4.90;;
18893;SDS011;9579;49.488;8.226;2023-06-24T14:01:19;5.50;;;5.00;;
18893;SDS011;9579;49.488;8.226;2023-06-24T14:04:06;4.78;;;4.47;;
18893;SDS011;9579;49.488;8.226;2023-06-24T14:06:53;5.28;;;4.80;;
18893;SDS011;9579;49.488;8.226;2023-06-24T14:09:40;4.95;;;4.53;;
18893;SDS011;9579;49.488;8.226;2023-06-24T14:12:27;4.82;;;4.50;;
18893;SDS011;9579;49.488;8.226;2023-06-24T14:15:14;4.70;;;4.40;;
18893;SDS011;9579;49.488;8.226;2023-06-24T14:18:03;4.60;;;4.30;;
18893;SDS011;9579;49.488;8.226;2023-06-24T14:20:50;4.80;;;4.43;;
18893;SDS011;9579;49.488;8.226;2023-06-24T14:23:37;4.72;;;4.43;;
18893;SDS011;9579;49.488;8.226;2023-06-24T14:26:25;4.88;;;4.47;;
18893;SDS011;9579;49.488;8.226;2023-06-24T14:29:12;4.72;;;4.20;;
18893;SDS011;9579;49.488;8.226;2023-06-24T14:31:59;4.70;;;4.30;;
18893;SDS011;9579;49.488;8.226;2023-06-24T14:34:47;4.80;;;4.38;;
18893;SDS011;9579;49.488;8.226;2023-06-24T14:37:34;4.70;;;4.40;;
18893;SDS011;9579;49.488;8.226;2023-06-24T14:40:22;4.85;;;4.32;;
18893;SDS011;9579;49.488;8.226;2023-06-24T14:43:09;5.13;;;4.63;;
18893;SDS011;9579;49.488;8.226;2023-06-24T14:45:56;4.80;;;4.50;;
18893;SDS011;9579;49.488;8.226;2023-06-24T14:48:43;4.72;;;4.32;;
18893;SDS011;9579;49.488;8.226;2023-06-24T14:51:31;5.10;;;4.70;;
18893;SDS011;9579;49.488;8.226;2023-06-24T14:54:18;5.03;;;4.60;;
18893;SDS011;9579;49.488;8.226;2023-06-24T14:57:05;5.22;;;4.65;;
18893;SDS011;9579;49.488;8.226;2023-06-24T14:59:52;4.72;;;4.43;;
18893;SDS011;9579;49.488;8.226;2023-06-24T15:02:39;5.13;;;4.68;;
18893;SDS011;9579;49.488;8.226;2023-06-24T15:05:26;4.95;;;4.28;;
18893;SDS011;9579;49.488;8.226;2023-06-24T15:08:15;6.32;;;4.72;;
18893;SDS011;9579;49.488;8.226;2023-06-24T15:11:02;4.78;;;4.38;;
18893;SDS011;9579;49.488;8.226;2023-06-24T15:13:49;4.78;;;4.47;;
18893;SDS011;9579;49.488;8.226;2023-06-24T15:16:36;4.32;;;4.03;;
18893;SDS011;9579;49.488;8.226;2023-06-24T15:19:23;5.00;;;4.65;;
18893;SDS011;9579;49.488;8.226;2023-06-24T15:22:10;4.90;;;4.50;;
18893;SDS011;9579;49.488;8.226;2023-06-24T15:24:59;4.75;;;4.35;;
18893;SDS011;9579;49.488;8.226;2023-06-24T15:27:46;4.88;;;4.57;;
18893;SDS011;9579;49.488;8.226;2023-06-24T15:30:33;4.82;;;4.45;;
18893;SDS011;9579;49.488;8.226;2023-06-24T15:33:20;5.22;;;4.47;;
18893;SDS011;9579;49.488;8.226;2023-06-24T15:36:07;4.50;;;4.20;;
18893;SDS011;9579;49.488;8.226;2023-06-24T15:38:54;4.22;;;3.92;;
18893;SDS011;9579;49.488;8.226;2023-06-24T15:41:45;5.18;;;4.78;;
18893;SDS011;9579;49.488;8.226;2023-06-24T15:44:33;4.60;;;4.30;;
18893;SDS011;9579;49.488;8.226;2023-06-24T15:47:20;4.47;;;4.18;;
18893;SDS011;9579;49.488;8.226;2023-06-24T15:50:07;4.57;;;4.22;;
18893;SDS011;9579;49.488;8.226;2023-06-24T15:52:56;4.63;;;4.28;;
18893;SDS011;9579;49.488;8.226;2023-06-24T15:55:43;5.18;;;4.63;;
18893;SDS011;9579;49.488;8.226;2023-06-24T15:58:31;4.88;;;4.47;;
18893;SDS011;9579;49.488;8.226;2023-06-24T16:01:18;4.85;;;4.45;;
18893;SDS011;9579;49.488;8.226;2023-06-24T16:04:05;4.50;;;4.10;;
18893;SDS011;9579;49.488;8.226;2023-06-24T16:06:52;4.65;;;4.25;;
18893;SDS011;9579;49.488;8.226;2023-06-24T16:09:40;4.45;;;4.05;;
18893;SDS011;9579;49.488;8.226;2023-06-24T16:12:27;4.25;;;3.95;;
18893;SDS011;9579;49.488;8.226;2023-06-24T16:15:15;4.75;;;4.35;;
18893;SDS011;9579;49.488;8.226;2023-06-24T16:18:02;5.00;;;4.63;;
18893;SDS011;9579;49.488;8.226;2023-06-24T16:20:49;5.00;;;4.57;;
18893;SDS011;9579;49.488;8.226;2023-06-24T16:23:36;4.63;;;4.25;;
18893;SDS011;9579;49.488;8.226;2023-06-24T16:26:23;4.82;;;4.53;;
18893;SDS011;9579;49.488;8.226;2023-06-24T16:29:10;4.85;;;4.45;;
18893;SDS011;9579;49.488;8.226;2023-06-24T16:31:59;4.55;;;4.25;;
18893;SDS011;9579;49.488;8.226;2023-06-24T16:34:46;4.70;;;4.28;;
18893;SDS011;9579;49.488;8.226;2023-06-24T16:37:33;4.70;;;4.30;;
18893;SDS011;9579;49.488;8.226;2023-06-24T16:40:20;4.50;;;4.20;;
18893;SDS011;9579;49.488;8.226;2023-06-24T16:43:07;4.78;;;4.38;;
18893;SDS011;9579;49.488;8.226;2023-06-24T16:45:54;4.53;;;4.20;;
18893;SDS011;9579;49.488;8.226;2023-06-24T16:48:43;4.72;;;4.32;;
18893;SDS011;9579;49.488;8.226;2023-06-24T16:51:30;5.00;;;4.60;;
18893;SDS011;9579;49.488;8.226;2023-06-24T16:54:17;4.63;;;4.32;;
18893;SDS011;9579;49.488;8.226;2023-06-24T16:57:06;4.80;;;4.40;;
18893;SDS011;9579;49.488;8.226;2023-06-24T16:59:53;5.07;;;4.68;;
18893;SDS011;9579;49.488;8.226;2023-06-24T17:02:40;5.30;;;4.80;;
18893;SDS011;9579;49.488;8.226;2023-06-24T17:05:28;4.88;;;4.50;;
18893;SDS011;9579;49.488;8.226;2023-06-24T17:08:16;4.72;;;4.32;;
18893;SDS011;9579;49.488;8.226;2023-06-24T17:11:03;5.07;;;4.68;;
18893;SDS011;9579;49.488;8.226;2023-06-24T17:13:50;5.00;;;4.60;;
18893;SDS011;9579;49.488;8.226;2023-06-24T17:16:37;4.70;;;4.30;;
18893;SDS011;9579;49.488;8.226;2023-06-24T17:19:24;4.80;;;4.40;;
18893;SDS011;9579;49.488;8.226;2023-06-24T17:22:12;5.10;;;4.70;;
18893;SDS011;9579;49.488;8.226;2023-06-24T17:24:59;4.68;;;4.32;;
18893;SDS011;9579;49.488;8.226;2023-06-24T17:27:46;5.20;;;4.78;;
18893;SDS011;9579;49.488;8.226;2023-06-24T17:30:33;5.30;;;4.90;;
18893;SDS011;9579;49.488;8.226;2023-06-24T17:33:20;6.18;;;4.70;;
18893;SDS011;9579;49.488;8.226;2023-06-24T17:36:08;5.32;;;4.93;;
18893;SDS011;9579;49.488;8.226;2023-06-24T17:38:57;5.20;;;4.60;;
18893;SDS011;9579;49.488;8.226;2023-06-24T17:41:44;4.80;;;4.40;;
18893;SDS011;9579;49.488;8.226;2023-06-24T17:44:31;5.82;;;5.25;;
18893;SDS011;9579;49.488;8.226;2023-06-24T17:47:18;4.90;;;4.50;;
18893;SDS011;9579;49.488;8.226;2023-06-24T17:50:05;5.80;;;5.28;;
18893;SDS011;9579;49.488;8.226;2023-06-24T17:52:52;5.30;;;4.90;;
18893;SDS011;9579;49.488;8.226;2023-06-24T17:55:41;5.68;;;5.18;;
18893;SDS011;9579;49.488;8.226;2023-06-24T17:58:29;5.28;;;4.88;;
18893;SDS011;9579;49.488;8.226;2023-06-24T18:01:15;5.15;;;4.75;;
18893;SDS011;9579;49.488;8.226;2023-06-24T18:04:03;5.13;;;4.72;;
18893;SDS011;9579;49.488;8.226;2023-06-24T18:06:50;5.78;;;5.30;;
18893;SDS011;9579;49.488;8.226;2023-06-24T18:09:37;5.07;;;4.70;;
18893;SDS011;9579;49.488;8.226;2023-06-24T18:12:25;5.65;;;5.18;;
18893;SDS011;9579;49.488;8.226;2023-06-24T18:15:12;5.07;;;4.65;;
18893;SDS011;9579;49.488;8.226;2023-06-24T18:17:59;5.25;;;4.75;;
18893;SDS011;9579;49.488;8.226;2023-06-24T18:20:46;5.22;;;4.72;;
18893;SDS011;9579;49.488;8.226;2023-06-24T18:23:33;5.80;;;5.30;;
18893;SDS011;9579;49.488;8.226;2023-06-24T18:26:20;7.47;;;5.18;;
18893;SDS011;9579;49.488;8.226;2023-06-24T18:29:12;5.55;;;5.15;;
18893;SDS011;9579;49.488;8.226;2023-06-24T18:31:59;5.45;;;5.05;;
18893;SDS011;9579;49.488;8.226;2023-06-24T18:34:46;5.38;;;4.97;;
18893;SDS011;9579;49.488;8.226;2023-06-24T18:37:33;5.50;;;5.10;;
18893;SDS011;9579;49.488;8.226;2023-06-24T18:40:21;5.30;;;4.90;;
18893;SDS011;9579;49.488;8.226;2023-06-24T18:43:08;5.22;;;4.82;;
18893;SDS011;9579;49.488;8.226;2023-06-24T18:45:56;5.68;;;5.28;;
18893;SDS011;9579;49.488;8.226;2023-06-24T18:48:43;5.65;;;5.25;;
18893;SDS011;9579;49.488;8.226;2023-06-24T18:51:30;5.50;;;5.10;;
18893;SDS011;9579;49.488;8.226;2023-06-24T18:54:17;5.10;;;4.70;;
18893;SDS011;9579;49.488;8.226;2023-06-24T18:57:05;5.32;;;4.93;;
18893;SDS011;9579;49.488;8.226;2023-06-24T18:59:52;4.97;;;4.55;;
18893;SDS011;9579;49.488;8.226;2023-06-24T19:02:41;5.88;;;5.38;;